Time;durP1;ratioP1;P1;durP2;ratioP2;P2;SDS_P1;SDS_P2;PMS_P1;PMS_P2;Temp;Humidity;BMP_temperature;BMP_pressure;BME280_temperature;BME280_humidity;BME280_pressure;Samples;Min_cycle;Max_cycle;Signal;HPM_P1;HPM_P2
2022/01/05 00:00:01;;;;;;;3.60;1.60;;;;;;;3.86;100.00;97541.80;103556;1302;24306;-30
2022/01/05 00:02:27;;;;;;;1.70;0.90;;;;;;;3.73;100.00;97534.85;103575;1302;24519;-29
2022/01/05 00:04:53;;;;;;;3.00;1.50;;;;;;;3.51;100.00;97527.90;103546;1302;24213;-29
2022/01/05 00:07:19;;;;;;;2.70;1.60;;;;;;;3.44;100.00;97528.49;103488;1300;24318;-29
2022/01/05 00:09:45;;;;;;;1.90;1.60;;;;;;;3.44;100.00;97534.13;103551;1302;24227;-30
2022/01/05 00:12:12;;;;;;;2.60;1.40;;;;;;;3.48;100.00;97533.04;103617;1302;24214;-25
2022/01/05 00:14:37;;;;;;;3.00;1.30;;;;;;;3.47;100.00;97523.35;103564;1302;24182;-31
2022/01/05 00:17:03;;;;;;;1.50;0.90;;;;;;;3.39;100.00;97521.48;103560;1302;24332;-25
2022/01/05 00:19:29;;;;;;;5.10;2.20;;;;;;;3.39;100.00;97527.11;103648;1302;24294;-28
2022/01/05 00:21:55;;;;;;;5.00;1.60;;;;;;;3.42;100.00;97530.88;103547;1302;24312;-32
2022/01/05 00:24:21;;;;;;;2.10;1.70;;;;;;;3.56;100.00;97526.02;103559;1302;24334;-31
2022/01/05 00:26:47;;;;;;;3.30;1.50;;;;;;;3.48;100.00;97529.15;103582;1302;22734;-29
2022/01/05 00:29:13;;;;;;;2.40;1.40;;;;;;;3.55;100.00;97529.39;103567;1302;24221;-25
2022/01/05 00:31:39;;;;;;;3.00;1.70;;;;;;;3.60;100.00;97536.68;103570;1302;24306;-29
2022/01/05 00:34:05;;;;;;;3.10;1.50;;;;;;;3.58;100.00;97534.14;103534;1302;24327;-30
2022/01/05 00:36:31;;;;;;;2.40;1.30;;;;;;;3.48;100.00;97539.41;103527;1302;22860;-30
2022/01/05 00:38:58;;;;;;;2.80;1.60;;;;;;;3.66;100.00;97538.41;103548;1302;24228;-29
2022/01/05 00:41:24;;;;;;;3.10;1.60;;;;;;;3.81;100.00;97540.64;103546;1302;24327;-24
2022/01/05 00:43:50;;;;;;;2.30;1.60;;;;;;;3.66;100.00;97538.83;103544;1302;22761;-24
2022/01/05 00:46:16;;;;;;;0.20;0.20;;;;;;;3.48;100.00;97538.30;103584;1302;24185;-23
2022/01/05 00:48:42;;;;;;;2.40;1.70;;;;;;;3.50;100.00;97534.64;103558;1302;22507;-27
2022/01/05 00:51:09;;;;;;;7.70;0.80;;;;;;;3.51;100.00;97537.71;103547;1302;24441;-30
2022/01/05 00:53:35;;;;;;;2.10;1.30;;;;;;;3.64;100.00;97541.52;103581;1302;24357;-29
2022/01/05 00:56:02;;;;;;;3.00;1.40;;;;;;;3.56;100.00;97537.36;103459;1302;24296;-23
2022/01/05 00:58:29;;;;;;;1.70;0.90;;;;;;;3.75;100.00;97543.73;103482;1302;24225;-25
2022/01/05 01:00:56;;;;;;;1.90;1.00;;;;;;;3.87;100.00;97537.44;103492;1302;24205;-29
2022/01/05 01:03:22;;;;;;;4.70;1.90;;;;;;;4.00;99.83;97535.19;103528;1302;24185;-25
2022/01/05 01:05:48;;;;;;;1.90;1.20;;;;;;;4.31;98.50;97532.95;103470;1303;24365;-26
2022/01/05 01:08:14;;;;;;;2.70;1.10;;;;;;;4.58;95.90;97533.19;103554;1302;24343;-24
2022/01/05 01:10:40;;;;;;;2.70;1.20;;;;;;;4.29;96.82;97528.00;103526;1302;24174;-24
2022/01/05 01:13:06;;;;;;;3.60;1.20;;;;;;;4.52;95.80;97534.00;103572;1302;24282;-24
2022/01/05 01:15:32;;;;;;;2.40;1.10;;;;;;;4.37;95.40;97539.67;103531;1302;22518;-28
2022/01/05 01:17:58;;;;;;;1.90;0.90;;;;;;;4.24;96.29;97549.79;103515;1302;24293;-29
2022/01/05 01:20:24;;;;;;;1.00;0.70;;;;;;;4.40;95.27;97543.23;103483;1302;24234;-30
2022/01/05 01:22:49;;;;;;;2.70;1.10;;;;;;;4.36;94.58;97545.23;103558;1302;24433;-24
2022/01/05 01:25:15;;;;;;;1.60;0.80;;;;;;;4.43;94.16;97552.52;103518;1302;24349;-29
2022/01/05 01:27:43;;;;;;;1.20;0.60;;;;;;;4.50;93.77;97551.13;103518;1302;24225;-29
2022/01/05 01:30:10;;;;;;;1.00;0.30;;;;;;;4.18;94.07;97553.75;103644;1302;24413;-29
2022/01/05 01:32:36;;;;;;;1.20;0.70;;;;;;;4.15;94.78;97559.17;103535;1302;24254;-29
2022/01/05 01:35:04;;;;;;;5.80;0.50;;;;;;;4.26;94.20;97572.48;103468;1302;24441;-28
2022/01/05 01:37:29;;;;;;;0.80;0.50;;;;;;;4.26;93.63;97575.23;103491;1301;24384;-25
2022/01/05 01:39:55;;;;;;;1.80;0.70;;;;;;;4.19;93.76;97572.17;103495;1302;24288;-23
2022/01/05 01:42:21;;;;;;;1.80;0.50;;;;;;;3.95;94.60;97573.02;103549;1302;24200;-24
2022/01/05 01:44:47;;;;;;;4.60;0.80;;;;;;;4.01;94.68;97568.48;103644;1302;24215;-29
2022/01/05 01:47:13;;;;;;;1.50;0.60;;;;;;;4.08;94.20;97561.64;103517;1302;26424;-24
2022/01/05 01:49:39;;;;;;;1.20;0.50;;;;;;;3.93;94.89;97558.24;103516;1302;24262;-31
2022/01/05 01:52:05;;;;;;;1.00;0.50;;;;;;;4.00;94.53;97555.20;103552;1303;24190;-29
2022/01/05 01:54:31;;;;;;;1.40;1.00;;;;;;;4.10;93.99;97557.00;103498;1302;24382;-24
2022/01/05 01:56:58;;;;;;;0.50;0.30;;;;;;;4.15;93.88;97558.18;103491;1302;24328;-25
2022/01/05 01:59:23;;;;;;;1.70;0.90;;;;;;;4.26;93.50;97564.54;103607;1302;24212;-29
2022/01/05 02:01:49;;;;;;;1.20;0.80;;;;;;;4.19;93.46;97573.08;103569;1302;24176;-29
2022/01/05 02:04:15;;;;;;;0.80;0.50;;;;;;;4.36;92.80;97577.77;103524;1302;24308;-24
2022/01/05 02:06:41;;;;;;;5.10;0.60;;;;;;;4.32;92.58;97581.23;103521;1302;24195;-24
2022/01/05 02:09:07;;;;;;;2.90;0.70;;;;;;;4.30;92.93;97585.86;103494;1302;24344;-24
2022/01/05 02:11:34;;;;;;;2.60;0.60;;;;;;;4.21;93.08;97584.41;103530;1302;24220;-25
2022/01/05 02:14:00;;;;;;;3.60;0.70;;;;;;;4.47;92.95;97582.91;103573;1302;24185;-28
2022/01/05 02:16:30;;;;;;;0.60;0.40;;;;;;;4.65;91.61;97577.29;103540;1302;24351;-29
2022/01/05 02:18:58;;;;;;;0.50;0.20;;;;;;;4.77;90.67;97572.83;103530;1302;22490;-29
2022/01/05 02:21:24;;;;;;;3.10;0.70;;;;;;;4.85;90.27;97561.77;103439;1302;24342;-24
2022/01/05 02:23:50;;;;;;;1.40;0.80;;;;;;;4.80;90.94;97556.88;103571;1302;24366;-28
2022/01/05 02:26:16;;;;;;;2.10;1.60;;;;;;;5.02;89.85;97550.19;103484;1302;24309;-29
2022/01/05 02:28:43;;;;;;;4.50;1.10;;;;;;;5.16;89.30;97538.98;103532;1302;24304;-24
2022/01/05 02:31:09;;;;;;;1.20;0.80;;;;;;;5.27;88.27;97539.06;103505;1302;22640;-24
2022/01/05 02:33:34;;;;;;;1.60;0.70;;;;;;;5.26;87.83;97551.26;103454;1303;24102;-28
2022/01/05 02:36:01;;;;;;;3.80;1.10;;;;;;;5.01;89.22;97553.96;103531;1302;24213;-24
2022/01/05 02:38:27;;;;;;;0.70;0.50;;;;;;;5.01;89.54;97558.34;103534;1302;24155;-29
2022/01/05 02:40:52;;;;;;;1.10;1.00;;;;;;;5.21;88.76;97565.16;103516;1302;24190;-24
2022/01/05 02:43:19;;;;;;;1.10;0.70;;;;;;;4.97;89.90;97568.27;103495;1302;24256;-25
2022/01/05 02:45:45;;;;;;;6.10;1.80;;;;;;;5.05;89.74;97566.86;103504;1302;24198;-28
2022/01/05 02:48:11;;;;;;;5.40;0.70;;;;;;;4.97;89.82;97561.86;103489;1302;24369;-24
2022/01/05 02:50:36;;;;;;;4.00;1.20;;;;;;;4.68;91.27;97556.82;103614;1301;24320;-28
2022/01/05 02:53:02;;;;;;;3.90;1.30;;;;;;;4.59;92.51;97550.23;103479;1302;24181;-24
2022/01/05 02:55:28;;;;;;;2.40;1.30;;;;;;;4.62;92.03;97555.92;103458;1302;24200;-25
2022/01/05 02:57:54;;;;;;;4.00;2.20;;;;;;;4.68;92.14;97551.48;103501;1302;24253;-29
2022/01/05 03:00:20;;;;;;;1.00;0.50;;;;;;;4.91;90.93;97547.61;103485;1302;24327;-25
2022/01/05 03:02:46;;;;;;;3.20;2.00;;;;;;;5.02;90.03;97538.45;103532;1302;22508;-28
2022/01/05 03:05:12;;;;;;;7.10;2.10;;;;;;;4.76;91.54;97539.83;103599;1302;22509;-29
2022/01/05 03:07:39;;;;;;;4.80;0.80;;;;;;;4.87;91.09;97548.84;103562;1302;24197;-29
2022/01/05 03:10:06;;;;;;;5.70;1.50;;;;;;;4.95;90.74;97547.41;103500;1302;22646;-23
2022/01/05 03:12:32;;;;;;;5.80;1.90;;;;;;;4.96;90.34;97542.27;103552;1302;24253;-24
2022/01/05 03:14:59;;;;;;;1.70;1.30;;;;;;;4.83;91.29;97529.01;103522;1302;24460;-26
2022/01/05 03:17:25;;;;;;;0.60;0.40;;;;;;;4.94;91.00;97536.32;103523;1302;24181;-25
2022/01/05 03:19:51;;;;;;;0.70;0.50;;;;;;;5.01;90.63;97537.23;103547;1302;22643;-29
2022/01/05 03:22:17;;;;;;;3.10;1.20;;;;;;;4.98;90.43;97533.58;103518;1302;24423;-25
2022/01/05 03:24:43;;;;;;;1.40;0.90;;;;;;;4.78;91.41;97522.95;103529;1303;22639;-24
2022/01/05 03:27:08;;;;;;;1.60;0.80;;;;;;;4.86;91.30;97523.20;103546;1302;24222;-29
2022/01/05 03:29:34;;;;;;;5.80;1.60;;;;;;;4.88;90.53;97534.36;103530;1302;24362;-24
2022/01/05 03:32:00;;;;;;;3.40;1.30;;;;;;;4.76;90.81;97542.89;103579;1302;24377;-24
2022/01/05 03:34:27;;;;;;;0.50;0.30;;;;;;;4.76;91.24;97541.77;103539;1302;24265;-23
2022/01/05 03:36:55;;;;;;;3.80;1.20;;;;;;;4.80;90.89;97549.19;103523;1302;24232;-28
2022/01/05 03:39:22;;;;;;;1.40;0.70;;;;;;;4.71;91.66;97558.23;103529;1302;22855;-24
2022/01/05 03:41:47;;;;;;;3.20;0.70;;;;;;;4.85;91.41;97558.48;103496;1302;24205;-30
2022/01/05 03:44:13;;;;;;;6.40;1.20;;;;;;;4.86;91.08;97555.36;103430;1302;24306;-24
2022/01/05 03:46:39;;;;;;;4.00;0.80;;;;;;;4.84;90.96;97557.98;103498;1302;24198;-25
2022/01/05 03:49:05;;;;;;;1.00;0.50;;;;;;;4.78;91.27;97551.64;103384;1303;24239;-29
2022/01/05 03:51:31;;;;;;;2.50;1.10;;;;;;;4.80;91.14;97553.73;103449;1301;24284;-26
2022/01/05 03:53:57;;;;;;;2.80;0.80;;;;;;;4.74;91.72;97555.61;103504;1302;24253;-29
2022/01/05 03:56:22;;;;;;;2.80;1.40;;;;;;;4.60;92.28;97559.48;103599;1302;24253;-25
2022/01/05 03:58:49;;;;;;;6.00;0.80;;;;;;;4.52;93.14;97559.58;103552;1302;22631;-25
2022/01/05 04:01:15;;;;;;;1.70;0.70;;;;;;;4.55;93.42;97561.97;103528;1302;22502;-29
2022/01/05 04:03:40;;;;;;;1.70;0.90;;;;;;;4.57;93.84;97572.29;103495;1302;24192;-27
2022/01/05 04:06:06;;;;;;;5.50;1.30;;;;;;;4.52;93.96;97573.30;103488;1302;22525;-29
2022/01/05 04:08:32;;;;;;;2.30;1.10;;;;;;;4.40;94.72;97577.98;103474;1302;22516;-29
2022/01/05 04:10:58;;;;;;;2.60;1.60;;;;;;;4.33;94.85;97578.88;103092;1300;580536;-29
2022/01/05 04:13:24;;;;;;;2.40;1.00;;;;;;;4.28;95.43;97578.86;103511;1303;22537;-24
2022/01/05 04:15:51;;;;;;;6.10;1.20;;;;;;;4.26;95.97;97588.71;103535;1302;24433;-23
2022/01/05 04:18:17;;;;;;;3.00;1.30;;;;;;;4.38;95.91;97598.91;103467;1302;24308;-29
2022/01/05 04:20:43;;;;;;;3.50;1.20;;;;;;;4.47;95.10;97597.02;103490;1302;24352;-24
2022/01/05 04:23:09;;;;;;;2.90;1.10;;;;;;;4.58;94.49;97587.46;103510;1302;22762;-24
2022/01/05 04:25:35;;;;;;;2.60;1.00;;;;;;;4.42;94.39;97577.81;103523;1302;24337;-29
2022/01/05 04:28:02;;;;;;;2.20;1.20;;;;;;;4.24;95.39;97572.77;103512;1302;24321;-24
2022/01/05 04:30:28;;;;;;;2.40;1.40;;;;;;;4.06;95.98;97575.13;103500;1302;24341;-25
2022/01/05 04:32:54;;;;;;;3.40;1.40;;;;;;;4.04;96.85;97570.34;103479;1302;22513;-26
2022/01/05 04:35:19;;;;;;;2.60;1.60;;;;;;;3.98;97.06;97571.42;103554;1302;24174;-29
2022/01/05 04:37:45;;;;;;;4.20;1.70;;;;;;;3.98;97.51;97571.42;103467;1302;24322;-24
2022/01/05 04:40:12;;;;;;;2.70;1.40;;;;;;;4.01;97.32;97569.59;103504;1302;24229;-24
2022/01/05 04:42:38;;;;;;;2.80;1.40;;;;;;;4.08;97.25;97560.75;103551;1302;24325;-29
2022/01/05 04:45:04;;;;;;;5.70;1.40;;;;;;;3.96;97.37;97558.75;103431;1302;24623;-29
2022/01/05 04:47:30;;;;;;;6.50;1.90;;;;;;;3.93;97.67;97553.96;103513;1302;24169;-24
2022/01/05 04:49:56;;;;;;;3.10;1.20;;;;;;;3.94;97.78;97546.73;103607;1302;22518;-29
2022/01/05 04:52:22;;;;;;;5.20;1.30;;;;;;;3.89;98.21;97545.61;103625;1302;24304;-29
2022/01/05 04:54:48;;;;;;;3.80;1.50;;;;;;;4.02;97.78;97549.12;103561;1302;24224;-24
2022/01/05 04:57:14;;;;;;;3.00;1.30;;;;;;;3.99;97.93;97552.67;103519;1302;24190;-29
2022/01/05 04:59:40;;;;;;;3.30;1.70;;;;;;;3.88;97.88;97548.30;103532;1302;23988;-24
2022/01/05 05:02:06;;;;;;;3.80;1.70;;;;;;;3.88;97.97;97547.45;103553;1302;23922;-24
2022/01/05 05:04:32;;;;;;;2.40;1.70;;;;;;;3.83;98.24;97552.25;103644;1302;24372;-29
2022/01/05 05:06:58;;;;;;;4.80;2.00;;;;;;;3.84;98.33;97557.81;103625;1302;24253;-29
2022/01/05 05:09:24;;;;;;;2.40;1.70;;;;;;;3.77;98.47;97564.97;103517;1302;24215;-24
2022/01/05 05:11:51;;;;;;;5.10;2.40;;;;;;;3.76;98.70;97565.42;103445;1303;24344;-29
2022/01/05 05:14:17;;;;;;;2.50;1.80;;;;;;;3.74;98.84;97555.36;103434;1302;24149;-24
2022/01/05 05:16:43;;;;;;;7.90;3.50;;;;;;;3.79;98.62;97558.85;103598;1302;24197;-29
2022/01/05 05:19:09;;;;;;;3.80;2.00;;;;;;;3.73;98.49;97561.20;103537;1302;24439;-29
2022/01/05 05:21:35;;;;;;;3.40;2.40;;;;;;;3.66;98.89;97563.66;103544;1302;24177;-29
2022/01/05 05:24:00;;;;;;;6.60;2.00;;;;;;;3.62;99.11;97564.50;103565;1302;24352;-27
2022/01/05 05:26:26;;;;;;;6.20;2.30;;;;;;;3.62;99.17;97568.30;103582;1302;24375;-29
2022/01/05 05:28:52;;;;;;;5.30;2.70;;;;;;;3.54;99.37;97568.34;103531;1302;24424;-24
2022/01/05 05:31:18;;;;;;;3.20;2.20;;;;;;;3.50;99.35;97579.34;103514;1302;24255;-25
2022/01/05 05:33:44;;;;;;;2.40;1.60;;;;;;;3.43;99.74;97576.83;103507;1303;24168;-28
2022/01/05 05:36:10;;;;;;;3.70;2.50;;;;;;;3.46;99.69;97577.88;103396;1303;24355;-24
2022/01/05 05:38:36;;;;;;;5.70;2.10;;;;;;;3.40;99.84;97577.47;103472;1302;23179;-26
2022/01/05 05:41:01;;;;;;;6.80;2.00;;;;;;;3.40;99.90;97578.16;103369;1303;24434;-24
2022/01/05 05:43:28;;;;;;;3.50;2.20;;;;;;;3.44;99.73;97581.60;103400;1302;22567;-25
2022/01/05 05:45:54;;;;;;;4.70;2.40;;;;;;;3.36;99.95;97584.27;103475;1302;22731;-25
2022/01/05 05:48:20;;;;;;;6.90;3.10;;;;;;;3.38;99.92;97584.80;103534;1302;24278;-27
2022/01/05 05:50:46;;;;;;;11.80;2.60;;;;;;;3.33;99.97;97588.67;103554;1302;24374;-24
2022/01/05 05:53:12;;;;;;;8.00;3.90;;;;;;;3.28;100.00;97586.08;103541;1302;22531;-28
2022/01/05 05:55:38;;;;;;;7.50;3.00;;;;;;;3.27;100.00;97589.52;103533;1302;24334;-27
2022/01/05 05:58:04;;;;;;;5.10;3.30;;;;;;;3.27;100.00;97590.23;103498;1302;24307;-30
2022/01/05 06:00:30;;;;;;;5.60;4.30;;;;;;;3.25;100.00;97589.81;103686;1302;22805;-26
2022/01/05 06:02:57;;;;;;;7.20;3.90;;;;;;;3.23;100.00;97592.48;103579;1303;24322;-24
2022/01/05 06:05:23;;;;;;;8.00;3.80;;;;;;;3.26;100.00;97592.16;103698;1302;25866;-25
2022/01/05 06:07:49;;;;;;;7.80;4.10;;;;;;;3.29;100.00;97587.36;103828;1302;24401;-25
2022/01/05 06:10:15;;;;;;;4.60;3.20;;;;;;;3.25;100.00;97579.70;103729;1302;24241;-29
2022/01/05 06:12:41;;;;;;;6.90;3.90;;;;;;;3.28;100.00;97576.65;103525;1302;24198;-25
2022/01/05 06:15:07;;;;;;;5.50;4.10;;;;;;;3.31;100.00;97577.00;103470;1302;24172;-26
2022/01/05 06:17:34;;;;;;;5.90;5.30;;;;;;;3.25;100.00;97580.15;103555;1301;24272;-26
2022/01/05 06:20:00;;;;;;;6.30;3.70;;;;;;;3.27;100.00;97577.30;103544;1302;24225;-25
2022/01/05 06:22:26;;;;;;;5.10;3.80;;;;;;;3.36;100.00;97575.91;103520;1302;24219;-24
2022/01/05 06:24:52;;;;;;;3.90;2.90;;;;;;;3.41;100.00;97569.70;103575;1302;24357;-24
2022/01/05 06:27:18;;;;;;;5.60;3.60;;;;;;;3.39;100.00;97570.11;103527;1302;24201;-27
2022/01/05 06:29:44;;;;;;;4.70;3.20;;;;;;;3.41;100.00;97576.03;103486;1302;24258;-24
2022/01/05 06:32:10;;;;;;;16.90;4.10;;;;;;;3.44;100.00;97580.86;103504;1302;22642;-26
2022/01/05 06:34:36;;;;;;;6.80;3.50;;;;;;;3.70;99.36;97578.43;103558;1300;24232;-24
2022/01/05 06:37:02;;;;;;;6.90;4.00;;;;;;;3.47;99.53;97583.30;103564;1302;24225;-27
2022/01/05 06:39:27;;;;;;;5.40;4.30;;;;;;;3.57;99.64;97580.97;103569;1302;24473;-29
2022/01/05 06:41:53;;;;;;;5.30;3.70;;;;;;;3.69;98.98;97581.85;103556;1302;24378;-23
2022/01/05 06:44:20;;;;;;;10.50;3.00;;;;;;;3.64;99.09;97585.06;103521;1302;24188;-24
2022/01/05 06:46:47;;;;;;;3.70;2.90;;;;;;;3.81;98.42;97583.09;103589;1302;24281;-24
2022/01/05 06:49:12;;;;;;;4.00;2.40;;;;;;;3.99;97.32;97582.61;103479;1301;24438;-29
2022/01/05 06:51:38;;;;;;;5.10;4.10;;;;;;;3.92;97.18;97577.08;103596;1302;24249;-24
2022/01/05 06:54:04;;;;;;;9.50;3.30;;;;;;;3.83;97.80;97575.50;103544;1302;24342;-30
2022/01/05 06:56:30;;;;;;;7.60;4.90;;;;;;;4.00;97.27;97573.11;103537;1302;24242;-25
2022/01/05 06:58:56;;;;;;;2.80;1.80;;;;;;;3.86;97.40;97574.44;103533;1302;24287;-27
2022/01/05 07:01:22;;;;;;;5.00;3.60;;;;;;;3.98;97.39;97572.32;103494;1302;24237;-26
2022/01/05 07:03:48;;;;;;;5.40;4.30;;;;;;;3.87;97.74;97573.14;103535;1302;24311;-29
2022/01/05 07:06:14;;;;;;;4.80;3.90;;;;;;;3.70;98.56;97577.53;103497;1302;24150;-24
2022/01/05 07:08:40;;;;;;;5.60;3.10;;;;;;;3.79;98.62;97580.27;103450;1302;24198;-29
2022/01/05 07:11:05;;;;;;;3.60;2.90;;;;;;;3.90;98.20;97583.05;103542;1302;24365;-29
2022/01/05 07:13:31;;;;;;;6.30;4.00;;;;;;;3.81;98.58;97576.05;103510;1302;22522;-28
2022/01/05 07:15:57;;;;;;;6.40;2.80;;;;;;;3.64;99.26;97574.84;103531;1302;24237;-24
2022/01/05 07:18:23;;;;;;;4.50;3.20;;;;;;;3.65;99.91;97571.91;103585;1302;24336;-25
2022/01/05 07:20:49;;;;;;;7.50;4.20;;;;;;;3.58;99.98;97576.24;103566;1302;24069;-29
2022/01/05 07:23:15;;;;;;;4.70;3.40;;;;;;;3.46;100.00;97574.39;103628;1302;24334;-31
2022/01/05 07:25:41;;;;;;;4.50;3.30;;;;;;;3.41;100.00;97573.38;103574;1301;24427;-30
2022/01/05 07:28:09;;;;;;;5.50;4.30;;;;;;;3.44;100.00;97568.54;103317;1303;22515;-25
2022/01/05 07:30:35;;;;;;;7.00;5.10;;;;;;;3.49;100.00;97570.40;103595;1302;25399;-30
2022/01/05 07:33:01;;;;;;;7.40;5.70;;;;;;;3.54;100.00;97571.20;103564;1300;24408;-27
2022/01/05 07:35:26;;;;;;;7.20;5.80;;;;;;;3.60;100.00;97570.95;103557;1302;24433;-30
2022/01/05 07:37:52;;;;;;;11.90;5.20;;;;;;;3.62;100.00;97575.00;103539;1302;24684;-29
2022/01/05 07:40:18;;;;;;;8.40;5.50;;;;;;;3.67;100.00;97573.84;103541;1302;24320;-25
2022/01/05 07:42:44;;;;;;;14.70;4.00;;;;;;;3.72;100.00;97575.45;103551;1302;24125;-25
2022/01/05 07:45:10;;;;;;;7.40;4.40;;;;;;;3.75;100.00;97574.69;103560;1302;22523;-26
2022/01/05 07:47:36;;;;;;;21.90;4.00;;;;;;;3.87;100.00;97573.71;103527;1301;24396;-25
2022/01/05 07:50:04;;;;;;;5.80;4.00;;;;;;;3.82;100.00;97571.23;103601;1300;24280;-30
2022/01/05 07:52:29;;;;;;;7.00;4.00;;;;;;;3.87;100.00;97569.30;103565;1302;24249;-25
2022/01/05 07:54:55;;;;;;;7.10;4.10;;;;;;;3.85;100.00;97565.98;103477;1302;24336;-30
2022/01/05 07:57:21;;;;;;;10.20;5.30;;;;;;;3.89;100.00;97564.94;103545;1302;24224;-25
2022/01/05 07:59:47;;;;;;;8.90;4.50;;;;;;;3.93;100.00;97561.93;103533;1302;24331;-27
2022/01/05 08:02:13;;;;;;;7.00;4.80;;;;;;;4.00;100.00;97561.79;103582;1302;24371;-26
2022/01/05 08:04:39;;;;;;;10.00;5.70;;;;;;;4.00;100.00;97556.80;103439;1302;24208;-29
2022/01/05 08:07:05;;;;;;;8.00;6.30;;;;;;;4.02;100.00;97555.77;103539;1302;24326;-25
2022/01/05 08:09:31;;;;;;;8.20;5.80;;;;;;;4.01;100.00;97566.23;103504;1302;22638;-32
2022/01/05 08:11:57;;;;;;;9.40;4.70;;;;;;;4.04;100.00;97559.06;103549;1302;24234;-27
2022/01/05 08:14:23;;;;;;;6.10;4.00;;;;;;;4.08;100.00;97560.88;103548;1302;24142;-30
2022/01/05 08:16:49;;;;;;;5.90;4.10;;;;;;;4.06;100.00;97561.80;103554;1302;24462;-24
2022/01/05 08:19:17;;;;;;;7.70;4.80;;;;;;;4.05;100.00;97556.90;103546;1302;24318;-29
2022/01/05 08:21:43;;;;;;;5.80;4.70;;;;;;;4.05;100.00;97565.73;103498;1302;24143;-24
2022/01/05 08:24:08;;;;;;;6.80;4.20;;;;;;;4.12;100.00;97573.27;103572;1302;24223;-24
2022/01/05 08:26:35;;;;;;;6.80;4.30;;;;;;;4.15;100.00;97571.69;103578;1302;24323;-25
2022/01/05 08:29:01;;;;;;;8.30;4.80;;;;;;;4.30;100.00;97576.83;103489;1302;24200;-29
2022/01/05 08:31:26;;;;;;;8.20;5.60;;;;;;;4.17;100.00;97576.88;103530;1302;24317;-24
2022/01/05 08:33:56;;;;;;;8.30;5.30;;;;;;;4.24;100.00;97579.46;103546;1302;22502;-24
2022/01/05 08:36:23;;;;;;;7.30;4.30;;;;;;;4.36;99.99;97583.37;103549;1301;22522;-29
2022/01/05 08:38:49;;;;;;;7.50;5.10;;;;;;;4.34;99.47;97586.02;103524;1302;26193;-25
2022/01/05 08:41:15;;;;;;;12.20;6.10;;;;;;;4.27;100.00;97581.07;103883;1302;24339;-24
2022/01/05 08:43:41;;;;;;;6.00;4.60;;;;;;;4.33;99.94;97580.52;103653;1301;22757;-30
2022/01/05 08:46:07;;;;;;;5.90;3.80;;;;;;;4.20;100.00;97574.73;103561;1300;24199;-25
2022/01/05 08:48:33;;;;;;;8.10;5.10;;;;;;;4.31;100.00;97578.79;103660;1300;24253;-29
2022/01/05 08:50:59;;;;;;;13.70;7.90;;;;;;;4.34;100.00;97583.12;103607;1300;24448;-32
2022/01/05 08:53:25;;;;;;;4.80;3.00;;;;;;;4.45;99.94;97582.41;103592;1300;24311;-25
2022/01/05 08:55:51;;;;;;;5.30;4.20;;;;;;;4.43;100.00;97581.42;103512;1300;24309;-30
2022/01/05 08:58:18;;;;;;;5.50;4.10;;;;;;;4.44;99.99;97588.71;103492;1300;24226;-25
2022/01/05 09:00:44;;;;;;;7.00;4.70;;;;;;;4.46;100.00;97586.70;103529;1300;24174;-25
2022/01/05 09:03:13;;;;;;;7.90;4.70;;;;;;;4.75;99.46;97590.02;103565;1300;24239;-24
2022/01/05 09:05:39;;;;;;;7.30;4.00;;;;;;;4.73;98.83;97587.61;103599;1300;23903;-30
2022/01/05 09:08:05;;;;;;;4.80;3.40;;;;;;;4.76;98.53;97583.23;103514;1300;24293;-30
2022/01/05 09:10:31;;;;;;;4.10;2.60;;;;;;;4.77;99.49;97584.61;103519;1300;24214;-24
2022/01/05 09:12:58;;;;;;;5.00;3.50;;;;;;;4.94;98.89;97582.80;103535;1300;24225;-26
2022/01/05 09:15:24;;;;;;;6.80;2.70;;;;;;;5.15;97.06;97581.48;103528;1300;24252;-29
2022/01/05 09:17:50;;;;;;;4.00;2.40;;;;;;;5.01;97.10;97590.30;103523;1301;24617;-26
2022/01/05 09:20:16;;;;;;;2.90;2.20;;;;;;;4.98;98.40;97584.73;103512;1300;24435;-30
2022/01/05 09:22:42;;;;;;;4.30;2.80;;;;;;;5.09;97.23;97585.10;103563;1300;24201;-30
2022/01/05 09:25:10;;;;;;;4.50;2.50;;;;;;;4.99;98.30;97578.39;103578;1300;22507;-24
2022/01/05 09:27:36;;;;;;;3.80;2.70;;;;;;;5.00;97.59;97571.80;103572;1300;24230;-24
2022/01/05 09:30:04;;;;;;;4.60;2.20;;;;;;;4.85;98.27;97572.09;103501;1300;24174;-27
2022/01/05 09:32:30;;;;;;;2.20;1.40;;;;;;;4.92;98.92;97580.60;103560;1300;24329;-24
2022/01/05 09:34:56;;;;;;;4.80;2.20;;;;;;;5.03;98.41;97589.88;103486;1300;22561;-25
2022/01/05 09:37:27;;;;;;;2.80;2.00;;;;;;;5.09;98.71;97594.06;103515;1300;24461;-24
2022/01/05 09:42:23;;;;;;;3.70;2.70;;;;;;;4.98;99.48;97578.70;103596;1299;25924;-27
2022/01/05 09:44:49;;;;;;;4.70;2.80;;;;;;;5.15;98.42;97587.30;103535;1300;24229;-32
2022/01/05 09:47:23;;;;;;;4.90;2.30;;;;;;;5.43;98.15;97589.88;103521;1300;24234;-24
2022/01/05 09:49:53;;;;;;;4.80;2.30;;;;;;;5.51;96.49;97589.30;103576;1300;22733;-31
2022/01/05 09:52:19;;;;;;;2.00;1.60;;;;;;;5.76;94.31;97583.46;103553;1300;24248;-24
2022/01/05 09:54:45;;;;;;;2.20;1.30;;;;;;;5.61;94.63;97571.07;103494;1300;24230;-29
2022/01/05 09:57:11;;;;;;;4.30;2.40;;;;;;;5.48;95.30;97574.14;103728;1300;24196;-26
2022/01/05 09:59:36;;;;;;;5.50;2.40;;;;;;;5.61;94.77;97565.74;103542;1300;24355;-29
2022/01/05 10:02:04;;;;;;;5.10;2.90;;;;;;;5.55;95.07;97565.23;103725;1300;22517;-30
2022/01/05 10:04:29;;;;;;;2.40;1.60;;;;;;;5.70;94.14;97567.45;103609;1300;24198;-24
2022/01/05 10:06:55;;;;;;;2.30;1.50;;;;;;;5.75;93.19;97587.23;103545;1300;24422;-30
2022/01/05 10:09:21;;;;;;;1.90;1.30;;;;;;;5.43;94.96;97588.29;103535;1300;23066;-24
2022/01/05 10:11:47;;;;;;;3.40;1.60;;;;;;;5.40;94.94;97599.02;103467;1300;24286;-23
2022/01/05 10:14:13;;;;;;;3.00;2.00;;;;;;;5.31;96.02;97601.09;103551;1300;24419;-29
2022/01/05 10:16:40;;;;;;;2.80;1.60;;;;;;;5.50;94.75;97590.53;103534;1302;24348;-29
2022/01/05 10:19:08;;;;;;;5.50;2.10;;;;;;;5.54;94.78;97595.11;103538;1300;24317;-24
2022/01/05 10:21:36;;;;;;;2.40;1.40;;;;;;;5.24;96.06;97605.10;103590;1300;25225;-30
2022/01/05 10:24:02;;;;;;;3.20;1.40;;;;;;;5.50;95.09;97595.20;103656;1300;24230;-30
2022/01/05 10:26:31;;;;;;;5.80;1.60;;;;;;;5.24;95.82;97586.80;103571;1300;25127;-29
2022/01/05 10:28:58;;;;;;;3.10;2.00;;;;;;;5.21;97.06;97585.45;103564;1300;24139;-24
2022/01/05 10:31:27;;;;;;;4.20;1.20;;;;;;;5.48;94.86;97592.90;103694;1300;22638;-30
2022/01/05 10:33:53;;;;;;;3.20;1.80;;;;;;;5.56;94.84;97592.59;103594;1300;24196;-24
2022/01/05 10:36:19;;;;;;;3.10;1.40;;;;;;;5.27;94.85;97601.50;103524;1300;24381;-29
2022/01/05 10:38:50;;;;;;;2.70;1.10;;;;;;;5.49;95.15;97600.48;103514;1300;24521;-25
2022/01/05 10:41:17;;;;;;;5.40;1.30;;;;;;;5.47;94.01;97600.36;103556;1300;22515;-24
2022/01/05 10:43:49;;;;;;;2.10;0.70;;;;;;;5.50;94.05;97602.04;103582;1300;24327;-24
2022/01/05 10:46:31;;;;;;;2.60;1.40;;;;;;;5.33;94.15;97600.80;103562;1300;24114;-29
2022/01/05 10:48:57;;;;;;;2.00;1.00;;;;;;;5.49;93.25;97605.22;103541;1300;24439;-24
2022/01/05 10:51:28;;;;;;;2.00;0.40;;;;;;;5.30;93.97;97611.04;103633;1300;24243;-26
2022/01/05 10:54:01;;;;;;;3.90;1.30;;;;;;;5.46;92.47;97606.34;103499;1300;22728;-24
2022/01/05 10:56:27;;;;;;;1.70;1.10;;;;;;;5.36;93.17;97608.45;103595;1300;22923;-23
2022/01/05 10:58:52;;;;;;;3.00;0.90;;;;;;;5.24;93.95;97603.67;103553;1300;24297;-28
2022/01/05 11:01:25;;;;;;;2.90;0.70;;;;;;;5.01;95.14;97612.78;103494;1300;24347;-29
2022/01/05 11:03:51;;;;;;;1.30;0.70;;;;;;;4.99;95.58;97620.64;103609;1300;24138;-24
2022/01/05 11:06:17;;;;;;;1.30;0.70;;;;;;;5.03;96.13;97622.39;103583;1300;24286;-29
2022/01/05 11:08:48;;;;;;;3.30;0.90;;;;;;;5.13;95.28;97615.10;103514;1300;24203;-24
2022/01/05 11:11:20;;;;;;;2.10;0.80;;;;;;;5.29;94.53;97601.34;103524;1300;24395;-24
2022/01/05 11:13:54;;;;;;;2.80;0.90;;;;;;;5.13;94.89;97591.24;103588;1300;22865;-30
2022/01/05 11:16:25;;;;;;;3.90;0.80;;;;;;;4.94;96.41;97600.45;103587;1300;24444;-29
2022/01/05 11:19:03;;;;;;;0.90;0.50;;;;;;;4.91;97.06;97599.55;103546;1300;24323;-30
2022/01/05 11:21:29;;;;;;;0.90;0.50;;;;;;;5.00;96.25;97602.29;103551;1300;24174;-24
2022/01/05 11:23:56;;;;;;;1.20;0.60;;;;;;;4.87;96.86;97598.81;103565;1300;22853;-25
2022/01/05 11:26:21;;;;;;;3.20;0.90;;;;;;;4.81;97.38;97599.95;103578;1300;24252;-30
2022/01/05 11:28:47;;;;;;;0.60;0.40;;;;;;;4.89;97.32;97599.19;103511;1300;24227;-29